Sl Sokol — UBPN7 — position and weather

sailwx.info

Track history (hours):
 
Tides and Currents Weather Stations Pressure Air Temp Water Temp Dewpoint Dewpoint Depression Visibility Wind Speed Wind Dir Waves Ship Positions

Sl Sokol

Last reported at 2017-Dec-11 06:11 UTC. Time now 2017-Dec-14 17:16 UTC.
Position N 44°40' E 037°39'.

Length 25 m; draft 4.2 m.

Type: Tug. MMSI: 273370580.

Date/timePositionNaut miles runAvg speedWind from/ knotsBaromVisibWave heightAir tempDewpointWater temp
2017-Dec-11 06:11N 44°40' E 037°39'213.0
2017-Dec-11 06:01N 44°38' E 037°39'1 2.2
2017-Dec-11 05:30N 44°38' E 037°37'  
2017-Dec-08 23:44N 44°38' E 037°41'2 9.3
2017-Dec-08 23:31N 44°36' E 037°41'2 3.8
2017-Dec-08 23:00N 44°38' E 037°39'0 0.5
2017-Dec-08 22:29N 44°38' E 037°40'0 0.2
2017-Dec-08 22:01N 44°38' E 037°40'0 0.1
2017-Dec-08 21:31N 44°38' E 037°40'0 0.0
2017-Dec-08 21:00N 44°38' E 037°40'0 0.0
2017-Dec-08 20:30N 44°38' E 037°40'0 0.0
2017-Dec-08 20:01N 44°38' E 037°40'0 0.1
2017-Dec-08 19:30N 44°38' E 037°40'0 0.1
2017-Dec-08 19:01N 44°38' E 037°40'0 0.1
2017-Dec-08 18:29N 44°38' E 037°40'0 0.1
2017-Dec-08 18:00N 44°38' E 037°40'0 0.1
2017-Dec-08 17:30N 44°38' E 037°40'0 0.1
2017-Dec-08 17:00N 44°38' E 037°40'0 0.1
2017-Dec-08 16:30N 44°38' E 037°40'0 0.0
2017-Dec-08 16:00N 44°38' E 037°40'0 0.1
2017-Dec-08 15:30N 44°38' E 037°40'0 0.1
2017-Dec-08 15:01N 44°38' E 037°40'0 0.1
2017-Dec-08 14:31N 44°37' E 037°40'0 0.0
2017-Dec-08 14:01N 44°37' E 037°40'0 0.0
2017-Dec-08 13:30N 44°37' E 037°40'0 0.1
2017-Dec-08 12:59N 44°38' E 037°40'0 0.1
2017-Dec-08 12:30N 44°37' E 037°40'0 0.1
2017-Dec-08 12:01N 44°38' E 037°40'0 0.1
2017-Dec-08 11:30N 44°37' E 037°40'0 0.1
2017-Dec-08 11:00N 44°37' E 037°40'0 0.1
2017-Dec-08 10:30N 44°37' E 037°40'0 0.0
2017-Dec-08 10:01N 44°37' E 037°40'0 0.1
2017-Dec-08 09:30N 44°37' E 037°40'0 0.1
2017-Dec-08 09:00N 44°37' E 037°40'0 0.1
2017-Dec-08 08:30N 44°37' E 037°40'0 0.1
2017-Dec-08 08:00N 44°37' E 037°40'0 0.1
2017-Dec-08 07:30N 44°37' E 037°40'0 0.6
2017-Dec-08 07:00N 44°38' E 037°40'0 0.5
2017-Dec-08 06:30N 44°37' E 037°40'1 2.7
2017-Dec-08 06:00N 44°37' E 037°42'2 3.7
2017-Dec-08 05:30N 44°35' E 037°43'2 3.6
2017-Dec-08 05:00N 44°34' E 037°45'4 8.0
2017-Dec-08 04:30N 44°37' E 037°41'3 0.4
2017-Dec-07 21:22N 44°39' E 037°40'411.9
2017-Dec-07 21:01N 44°35' E 037°41'5 0.4
2017-Dec-07 08:39N 44°40' E 037°40'212.6
2017-Dec-07 08:31N 44°38' E 037°38'  
2017-Dec-03 17:44N 44°39' E 037°40'312.2
2017-Dec-03 17:30N 44°37' E 037°38'1 2.4
2017-Dec-03 16:56N 44°37' E 037°36'1 0.2
2017-Dec-03 13:23N 44°38' E 037°36'1 0.1
2017-Dec-02 21:09N 44°38' E 037°35'0 1.5
2017-Dec-02 21:00N 44°37' E 037°35'1 2.1
2017-Dec-02 20:28N 44°36' E 037°35'0 0.2
2017-Dec-02 19:57N 44°36' E 037°35'1 2.1
2017-Dec-02 19:28N 44°35' E 037°34'1 2.2
2017-Dec-02 19:00N 44°35' E 037°33'7 0.3
2017-Dec-01 19:34N 44°40' E 037°40'1 2.2
2017-Dec-01 19:19N 44°39' E 037°40'0 0.3
2017-Dec-01 18:40N 44°39' E 037°40'0 0.4
2017-Dec-01 18:06N 44°39' E 037°40'0 0.4
2017-Dec-01 17:55N 44°39' E 037°40'1 0.1
2017-Dec-01 13:13N 44°40' E 037°40'  
Track history (hours):
 
Tides and Currents Weather Stations Pressure Air Temp Water Temp Dewpoint Dewpoint Depression Visibility Wind Speed Wind Dir Waves Ship Positions

Sl Sokol

Last reported at 2017-Dec-11 06:11 UTC. Time now 2017-Dec-14 17:16 UTC.
Position N 44°40' E 037°39'.

Length 25 m; draft 4.2 m.

Type: Tug. MMSI: 273370580.

Date/timePositionNaut miles runAvg speedWind from/ knotsBaromVisibWave heightAir tempDewpointWater temp
2017-Dec-11 06:11N 44°40' E 037°39'213.0
2017-Dec-11 06:01N 44°38' E 037°39'1 2.2
2017-Dec-11 05:30N 44°38' E 037°37'  
2017-Dec-08 23:44N 44°38' E 037°41'2 9.3
2017-Dec-08 23:31N 44°36' E 037°41'2 3.8
2017-Dec-08 23:00N 44°38' E 037°39'0 0.5
2017-Dec-08 22:29N 44°38' E 037°40'0 0.2
2017-Dec-08 22:01N 44°38' E 037°40'0 0.1
2017-Dec-08 21:31N 44°38' E 037°40'0 0.0
2017-Dec-08 21:00N 44°38' E 037°40'0 0.0
2017-Dec-08 20:30N 44°38' E 037°40'0 0.0
2017-Dec-08 20:01N 44°38' E 037°40'0 0.1
2017-Dec-08 19:30N 44°38' E 037°40'0 0.1
2017-Dec-08 19:01N 44°38' E 037°40'0 0.1
2017-Dec-08 18:29N 44°38' E 037°40'0 0.1
2017-Dec-08 18:00N 44°38' E 037°40'0 0.1
2017-Dec-08 17:30N 44°38' E 037°40'0 0.1
2017-Dec-08 17:00N 44°38' E 037°40'0 0.1
2017-Dec-08 16:30N 44°38' E 037°40'0 0.0
2017-Dec-08 16:00N 44°38' E 037°40'0 0.1
2017-Dec-08 15:30N 44°38' E 037°40'0 0.1
2017-Dec-08 15:01N 44°38' E 037°40'0 0.1
2017-Dec-08 14:31N 44°37' E 037°40'0 0.0
2017-Dec-08 14:01N 44°37' E 037°40'0 0.0
2017-Dec-08 13:30N 44°37' E 037°40'0 0.1
2017-Dec-08 12:59N 44°38' E 037°40'0 0.1
2017-Dec-08 12:30N 44°37' E 037°40'0 0.1
2017-Dec-08 12:01N 44°38' E 037°40'0 0.1
2017-Dec-08 11:30N 44°37' E 037°40'0 0.1
2017-Dec-08 11:00N 44°37' E 037°40'0 0.1
2017-Dec-08 10:30N 44°37' E 037°40'0 0.0
2017-Dec-08 10:01N 44°37' E 037°40'0 0.1
2017-Dec-08 09:30N 44°37' E 037°40'0 0.1
2017-Dec-08 09:00N 44°37' E 037°40'0 0.1
2017-Dec-08 08:30N 44°37' E 037°40'0 0.1
2017-Dec-08 08:00N 44°37' E 037°40'0 0.1
2017-Dec-08 07:30N 44°37' E 037°40'0 0.6
2017-Dec-08 07:00N 44°38' E 037°40'0 0.5
2017-Dec-08 06:30N 44°37' E 037°40'1 2.7
2017-Dec-08 06:00N 44°37' E 037°42'2 3.7
2017-Dec-08 05:30N 44°35' E 037°43'2 3.6
2017-Dec-08 05:00N 44°34' E 037°45'4 8.0
2017-Dec-08 04:30N 44°37' E 037°41'3 0.4
2017-Dec-07 21:22N 44°39' E 037°40'411.9
2017-Dec-07 21:01N 44°35' E 037°41'5 0.4
2017-Dec-07 08:39N 44°40' E 037°40'212.6
2017-Dec-07 08:31N 44°38' E 037°38'  
2017-Dec-03 17:44N 44°39' E 037°40'312.2
2017-Dec-03 17:30N 44°37' E 037°38'1 2.4
2017-Dec-03 16:56N 44°37' E 037°36'1 0.2
2017-Dec-03 13:23N 44°38' E 037°36'1 0.1
2017-Dec-02 21:09N 44°38' E 037°35'0 1.5
2017-Dec-02 21:00N 44°37' E 037°35'1 2.1
2017-Dec-02 20:28N 44°36' E 037°35'0 0.2
2017-Dec-02 19:57N 44°36' E 037°35'1 2.1
2017-Dec-02 19:28N 44°35' E 037°34'1 2.2
2017-Dec-02 19:00N 44°35' E 037°33'7 0.3
2017-Dec-01 19:34N 44°40' E 037°40'1 2.2
2017-Dec-01 19:19N 44°39' E 037°40'0 0.3
2017-Dec-01 18:40N 44°39' E 037°40'0 0.4
2017-Dec-01 18:06N 44°39' E 037°40'0 0.4
2017-Dec-01 17:55N 44°39' E 037°40'1 0.1
2017-Dec-01 13:13N 44°40' E 037°40'  

Dump ship's entire track history